createdAt,value
2022-12-11T00:01:32.765Z,0.80
2022-12-11T00:05:34.188Z,1.10
2022-12-11T00:09:35.447Z,1.40
2022-12-11T00:13:36.410Z,1.80
2022-12-11T00:17:37.488Z,2.20
2022-12-11T00:21:38.773Z,1.90
2022-12-11T00:25:45.595Z,2.00
2022-12-11T00:29:46.544Z,1.80
2022-12-11T00:33:48.510Z,1.80
2022-12-11T00:37:49.512Z,1.40
2022-12-11T00:41:50.621Z,1.40
2022-12-11T00:45:51.865Z,1.10
2022-12-11T00:49:52.877Z,2.30
2022-12-11T00:53:53.923Z,2.00
2022-12-11T00:57:55.780Z,2.50
2022-12-11T01:01:56.785Z,2.60
2022-12-11T01:05:57.706Z,2.20
2022-12-11T01:10:17.267Z,2.20
2022-12-11T01:14:18.440Z,2.10
2022-12-11T01:18:19.273Z,2.10
2022-12-11T01:22:20.476Z,1.50
2022-12-11T01:26:21.705Z,1.20
2022-12-11T01:30:25.044Z,1.50
2022-12-11T01:34:31.527Z,2.20
2022-12-11T01:38:32.476Z,2.40
2022-12-11T01:42:34.083Z,1.50
2022-12-11T01:46:38.402Z,0.70
2022-12-11T01:50:48.951Z,-0.10
2022-12-11T01:54:50.851Z,0.20
2022-12-11T01:58:59.417Z,0.10
2022-12-11T02:03:00.683Z,0.70
2022-12-11T02:07:03.349Z,0.70
2022-12-11T02:11:11.510Z,0.80
2022-12-11T02:15:16.415Z,0.50
2022-12-11T02:19:33.200Z,0.20
2022-12-11T02:24:07.756Z,1.00
2022-12-11T02:28:16.465Z,0.90
2022-12-11T02:32:21.276Z,1.40
2022-12-11T02:36:25.871Z,0.80
2022-12-11T02:40:30.666Z,1.20
2022-12-11T02:44:34.489Z,1.80
2022-12-11T02:48:36.768Z,2.10
2022-12-11T02:52:39.608Z,2.70
2022-12-11T02:57:05.828Z,2.40
2022-12-11T03:01:07.558Z,2.90
2022-12-11T03:05:10.773Z,2.60
2022-12-11T03:09:14.383Z,2.30
2022-12-11T03:13:19.347Z,1.90
2022-12-11T03:17:27.159Z,2.70
2022-12-11T03:21:35.102Z,3.10
2022-12-11T03:25:48.257Z,3.50
2022-12-11T03:29:58.784Z,3.50
2022-12-11T03:34:03.381Z,3.20
2022-12-11T03:38:11.496Z,3.50
2022-12-11T03:42:15.010Z,2.40
2022-12-11T03:46:18.560Z,2.20
2022-12-11T03:50:21.388Z,1.70
2022-12-11T03:54:23.933Z,0.70
2022-12-11T03:58:26.434Z,1.10
2022-12-11T04:02:29.040Z,2.40
2022-12-11T04:06:30.264Z,1.80
2022-12-11T04:10:31.446Z,2.80
2022-12-11T04:14:52.575Z,3.20
2022-12-11T04:19:12.223Z,3.50
2022-12-11T04:23:34.477Z,3.30
2022-12-11T04:27:50.710Z,1.90
2022-12-11T04:31:51.952Z,2.30
2022-12-11T04:35:53.317Z,2.10
2022-12-11T04:39:56.365Z,2.20
2022-12-11T04:43:57.655Z,2.80
2022-12-11T04:47:59.086Z,2.90
2022-12-11T04:52:00.132Z,3.40
2022-12-11T04:56:03.197Z,2.40
2022-12-11T05:00:06.877Z,3.10
2022-12-11T05:04:08.042Z,3.60
2022-12-11T05:08:09.092Z,3.80
2022-12-11T05:12:10.144Z,3.70
2022-12-11T05:16:14.903Z,3.10
2022-12-11T05:20:17.580Z,3.10
2022-12-11T05:24:20.501Z,3.50
2022-12-11T05:28:24.610Z,2.90
2022-12-11T05:32:26.029Z,3.30
2022-12-11T05:36:32.876Z,3.40
2022-12-11T05:40:33.923Z,2.90
2022-12-11T05:44:36.851Z,3.00
2022-12-11T05:48:38.996Z,3.10
2022-12-11T05:52:40.186Z,2.90
2022-12-11T05:56:42.517Z,3.10
2022-12-11T06:00:44.074Z,3.30
2022-12-11T06:04:45.262Z,3.70
2022-12-11T06:08:55.833Z,3.20
2022-12-11T06:12:56.939Z,2.70
2022-12-11T06:16:58.090Z,2.40
2022-12-11T06:20:59.154Z,2.50
2022-12-11T06:25:00.126Z,1.60
2022-12-11T06:29:01.304Z,2.30
2022-12-11T06:33:05.002Z,3.10
2022-12-11T06:37:06.865Z,3.10
2022-12-11T06:41:08.990Z,3.00
2022-12-11T06:45:11.249Z,1.80
2022-12-11T06:49:12.495Z,2.00
2022-12-11T06:53:14.985Z,3.30
2022-12-11T06:57:18.871Z,3.50
2022-12-11T07:01:23.903Z,1.20
2022-12-11T07:05:25.199Z,0.30
2022-12-11T07:09:26.474Z,0.50
2022-12-11T07:13:27.578Z,0.30
2022-12-11T07:17:29.305Z,0.90
2022-12-11T07:21:30.523Z,1.50
2022-12-11T07:25:31.772Z,0.60
2022-12-11T07:29:32.880Z,0.10
2022-12-11T07:33:34.635Z,-0.20
2022-12-11T07:37:35.984Z,-0.30
2022-12-11T07:41:37.926Z,0.10
2022-12-11T07:45:39.097Z,-0.20
2022-12-11T07:49:40.082Z,-0.40
2022-12-11T07:53:42.514Z,0.00
2022-12-11T07:57:43.496Z,0.60
2022-12-11T08:01:44.925Z,1.50
2022-12-11T08:05:49.593Z,1.90
2022-12-11T08:09:50.755Z,1.50
2022-12-11T08:13:51.768Z,1.70
2022-12-11T08:17:53.029Z,1.00
2022-12-11T08:21:54.078Z,0.70
2022-12-11T08:25:56.442Z,1.00
2022-12-11T08:29:57.515Z,1.30
2022-12-11T08:33:59.995Z,0.00
2022-12-11T08:38:03.547Z,-0.10
2022-12-11T08:42:04.605Z,-0.10
2022-12-11T08:46:06.633Z,0.90
2022-12-11T08:50:08.645Z,2.00
2022-12-11T08:54:10.511Z,2.30
2022-12-11T08:58:11.726Z,2.00
2022-12-11T09:02:12.881Z,2.80
2022-12-11T09:06:16.657Z,2.00
2022-12-11T09:10:17.853Z,1.50
2022-12-11T09:14:20.945Z,0.90
2022-12-11T09:18:21.891Z,1.10
2022-12-11T09:22:23.150Z,1.00
2022-12-11T09:26:25.512Z,1.00
2022-12-11T09:30:27.142Z,0.60
2022-12-11T09:34:29.592Z,1.20
2022-12-11T09:38:31.646Z,1.00
2022-12-11T09:42:54.593Z,0.90
2022-12-11T09:46:57.396Z,1.50
2022-12-11T09:51:02.401Z,2.30
2022-12-11T09:55:16.325Z,0.90
2022-12-11T09:59:36.707Z,0.90
2022-12-11T10:03:50.969Z,0.40
2022-12-11T10:07:55.737Z,1.30
2022-12-11T10:12:06.658Z,0.20
2022-12-11T10:16:23.773Z,0.10
2022-12-11T10:20:41.822Z,-0.20
2022-12-11T10:25:11.265Z,0.20
2022-12-11T10:28:58.606Z,0.30
2022-12-11T10:33:12.562Z,0.20
2022-12-11T10:37:14.443Z,0.10
2022-12-11T10:41:20.594Z,1.30
2022-12-11T10:45:21.860Z,1.20
2022-12-11T10:49:29.244Z,1.50
2022-12-11T10:53:32.710Z,2.90
2022-12-11T10:57:38.421Z,2.40
2022-12-11T11:01:41.791Z,2.40
2022-12-11T11:05:49.105Z,2.50
2022-12-11T11:09:46.519Z,1.80
2022-12-11T11:13:48.114Z,1.80
2022-12-11T11:17:56.042Z,3.10
2022-12-11T11:22:00.147Z,1.90
2022-12-11T11:26:03.908Z,2.90
2022-12-11T11:30:08.696Z,3.60
2022-12-11T11:34:13.421Z,3.80
2022-12-11T11:38:20.411Z,3.10
2022-12-11T11:42:29.244Z,3.40
2022-12-11T11:46:46.339Z,3.70
2022-12-11T11:50:49.986Z,4.00
2022-12-11T11:54:54.764Z,3.90
2022-12-11T11:59:15.256Z,4.40
2022-12-11T12:03:19.104Z,3.70
2022-12-11T12:07:24.569Z,4.30
2022-12-11T12:11:35.517Z,3.60
2022-12-11T12:15:58.158Z,4.30
2022-12-11T12:20:05.802Z,3.10
2022-12-11T12:24:34.745Z,4.00
2022-12-11T12:28:59.629Z,3.60
2022-12-11T12:33:22.737Z,4.10
2022-12-11T12:37:36.521Z,3.60
2022-12-11T12:41:41.474Z,3.80
2022-12-11T12:45:54.982Z,4.20
2022-12-11T12:49:58.962Z,3.70
2022-12-11T12:54:04.630Z,2.80
2022-12-11T12:58:06.788Z,4.20
2022-12-11T13:02:11.949Z,4.40
2022-12-11T13:06:13.316Z,4.40
2022-12-11T13:10:30.201Z,4.60
2022-12-11T13:14:33.163Z,4.00
2022-12-11T13:18:37.816Z,3.60
2022-12-11T13:22:47.779Z,3.70
2022-12-11T13:26:50.162Z,4.20
2022-12-11T13:31:04.363Z,1.90
2022-12-11T13:35:07.550Z,2.80
2022-12-11T13:39:27.741Z,3.80
2022-12-11T13:43:32.590Z,3.80
2022-12-11T13:47:35.868Z,4.00
2022-12-11T13:51:38.943Z,3.70
2022-12-11T13:55:40.331Z,3.90
2022-12-11T13:59:44.533Z,1.60
2022-12-11T14:03:58.440Z,3.50
2022-12-11T14:08:03.870Z,3.60
2022-12-11T14:12:05.740Z,3.70
2022-12-11T14:16:07.216Z,3.70
2022-12-11T14:20:21.585Z,3.90
2022-12-11T14:24:22.668Z,3.80
2022-12-11T14:28:27.384Z,4.00
2022-12-11T14:32:31.858Z,4.20
2022-12-11T14:36:36.315Z,4.20
2022-12-11T14:40:41.272Z,3.80
2022-12-11T14:45:04.868Z,3.60
2022-12-11T14:49:10.010Z,3.50
2022-12-11T14:53:15.043Z,3.90
2022-12-11T14:57:22.351Z,3.30
2022-12-11T15:01:26.992Z,3.50
2022-12-11T15:05:28.936Z,3.70
2022-12-11T15:09:36.912Z,3.30
2022-12-11T15:13:56.930Z,2.80
2022-12-11T15:17:58.410Z,3.40
2022-12-11T15:22:04.801Z,3.70
2022-12-11T15:26:06.074Z,3.60
2022-12-11T15:30:27.344Z,3.70
2022-12-11T15:34:34.465Z,3.10
2022-12-11T15:38:40.107Z,3.70
2022-12-11T15:42:41.860Z,3.50
2022-12-11T15:46:43.188Z,3.80
2022-12-11T15:50:44.316Z,3.80
2022-12-11T15:54:45.370Z,3.70
2022-12-11T15:58:47.699Z,3.70
2022-12-11T16:02:52.147Z,3.70
2022-12-11T16:06:53.957Z,4.00
2022-12-11T16:10:55.644Z,3.80
2022-12-11T16:14:56.836Z,4.00
2022-12-11T16:18:57.996Z,4.00
2022-12-11T16:22:59.891Z,4.00
2022-12-11T16:27:01.960Z,3.50
2022-12-11T16:31:03.359Z,3.70
2022-12-11T16:35:07.473Z,4.00
2022-12-11T16:39:11.730Z,3.80
2022-12-11T16:43:12.688Z,3.90
2022-12-11T16:47:13.748Z,4.00
2022-12-11T16:51:15.529Z,3.80
2022-12-11T16:55:18.698Z,3.90
2022-12-11T16:59:19.879Z,3.90
2022-12-11T17:03:20.917Z,3.10
2022-12-11T17:07:21.832Z,3.70
2022-12-11T17:11:27.292Z,3.40
2022-12-11T17:15:28.351Z,3.60
2022-12-11T17:19:29.393Z,3.90
2022-12-11T17:23:30.546Z,4.20
2022-12-11T17:27:31.549Z,4.10
2022-12-11T17:31:33.173Z,4.10
2022-12-11T17:35:34.346Z,4.10
2022-12-11T17:39:36.732Z,4.00
2022-12-11T17:43:37.721Z,3.90
2022-12-11T17:47:38.706Z,4.00
2022-12-11T17:51:39.828Z,3.80
2022-12-11T17:55:42.478Z,3.60
2022-12-11T17:59:43.624Z,3.60
2022-12-11T18:03:44.928Z,3.50
2022-12-11T18:07:46.339Z,3.40
2022-12-11T18:11:47.720Z,3.20
2022-12-11T18:16:04.905Z,3.50
2022-12-11T18:20:06.498Z,3.40
2022-12-11T18:24:08.547Z,3.00
2022-12-11T18:28:09.859Z,3.30
2022-12-11T18:32:10.982Z,3.30
2022-12-11T18:36:14.340Z,3.30
2022-12-11T18:40:15.504Z,3.00
2022-12-11T18:44:18.495Z,3.30
2022-12-11T18:48:19.474Z,3.10
2022-12-11T18:52:20.630Z,3.00
2022-12-11T18:56:22.369Z,3.20
2022-12-11T19:00:23.469Z,3.10
2022-12-11T19:04:24.979Z,3.40
2022-12-11T19:08:28.421Z,3.40
2022-12-11T19:12:29.564Z,3.10
2022-12-11T19:16:33.964Z,3.20
2022-12-11T19:20:48.941Z,3.40
2022-12-11T19:24:40.627Z,3.30
2022-12-11T19:28:42.019Z,3.50
2022-12-11T19:32:43.228Z,3.50
2022-12-11T19:36:44.601Z,3.80
2022-12-11T19:40:45.687Z,3.60
2022-12-11T19:44:46.889Z,3.80
2022-12-11T19:48:49.567Z,3.70
2022-12-11T19:52:50.574Z,3.80
2022-12-11T19:56:52.181Z,3.90
2022-12-11T20:00:53.691Z,4.10
2022-12-11T20:04:54.873Z,4.10
2022-12-11T20:08:56.695Z,4.00
2022-12-11T20:12:58.714Z,4.00
2022-12-11T20:17:11.896Z,4.20
2022-12-11T20:21:05.642Z,4.00
2022-12-11T20:25:07.040Z,3.60
2022-12-11T20:29:08.165Z,4.00
2022-12-11T20:33:09.256Z,4.10
2022-12-11T20:37:12.110Z,4.00
2022-12-11T20:41:15.695Z,3.90
2022-12-11T20:45:17.926Z,2.80
2022-12-11T20:49:19.035Z,3.70
2022-12-11T20:53:20.069Z,3.50
2022-12-11T20:57:21.177Z,3.00
2022-12-11T21:01:24.542Z,2.60
2022-12-11T21:05:25.761Z,3.20
2022-12-11T21:09:29.262Z,1.20
2022-12-11T21:13:30.639Z,2.40
2022-12-11T21:17:31.727Z,2.30
2022-12-11T21:21:36.420Z,2.60
2022-12-11T21:25:39.918Z,3.10
2022-12-11T21:29:41.065Z,4.00
2022-12-11T21:33:42.223Z,3.10
2022-12-11T21:37:43.318Z,3.20
2022-12-11T21:41:44.420Z,2.40
2022-12-11T21:46:02.261Z,2.10
2022-12-11T21:49:48.700Z,2.00
2022-12-11T21:53:51.509Z,2.50
2022-12-11T21:57:54.465Z,3.60
2022-12-11T22:01:56.036Z,3.50
2022-12-11T22:05:57.035Z,3.20
2022-12-11T22:09:58.047Z,3.60
2022-12-11T22:13:59.172Z,3.30
2022-12-11T22:18:00.297Z,3.40
2022-12-11T22:22:01.420Z,3.40
2022-12-11T22:26:02.647Z,3.60
2022-12-11T22:30:04.897Z,3.60
2022-12-11T22:34:05.956Z,3.80
2022-12-11T22:38:07.175Z,3.50
2022-12-11T22:42:08.415Z,3.80
2022-12-11T22:46:13.437Z,3.80
2022-12-11T22:50:15.760Z,3.50
2022-12-11T22:54:16.717Z,4.00
2022-12-11T22:58:21.789Z,4.10
2022-12-11T23:02:20.720Z,4.00
2022-12-11T23:06:24.190Z,3.20
2022-12-11T23:10:25.182Z,2.40
2022-12-11T23:14:27.136Z,2.30
2022-12-11T23:18:28.311Z,1.60
2022-12-11T23:22:29.524Z,2.90
2022-12-11T23:26:31.248Z,2.90
2022-12-11T23:30:32.263Z,3.20
2022-12-11T23:34:33.243Z,2.90
2022-12-11T23:38:34.530Z,3.00
2022-12-11T23:42:35.664Z,3.50
2022-12-11T23:46:36.879Z,3.60
2022-12-11T23:50:39.207Z,3.20
2022-12-11T23:54:40.441Z,2.80
2022-12-11T23:58:41.851Z,2.70
